PWSweather.com
Personal Weather Stations
Station Observations
OBERT
Bodensee Hinterland, OberteuringenDE

Bodensee HinterlandOberteuringenDE

Lat: 47.714675, Lon: 9.44447

Elevation: 1427

Station Type: Wunder Weather Station

High Low Average
Temperature 47.4°F8.6°C 37.9°F3.3°C 44.1°F6.7°C
Dew Point 46.5°F8.1°C 37.9°F3.3°C 43.7°F6.5°C
Winds 9.5 mph 15.3 kmh Calm Calm 4.0 mph NE6.4 kmh NE
Wind Gusts 16.5 mph26.6 kmh -- 9.0 mph14.5 kmh
Humidity 100% 91% 98%
Pressure 30.10 in1019.3 mb 29.70 in1005.8 mb -
Precipitation 0.00 in0.0 mm - -
Hour Temp Dew Point Humidity Winds Wind Gusts Pressure Precip Precip Rate Daily Precip Total
12:08 AM 46.7°F8.2°C 45.4°F7.4°C 95% 0.9 mph N1.4 kmh N 6.8 mph10.9 kmh 29.70 in1005.8 mb 0.00 in0.0 mm 0.00 in0.0 mm 0.00 in0.0 mm
12:38 AM 46.7°F8.2°C 46.0°F7.8°C 97% 1.8 mph 2.9 kmh 7.1 mph11.4 kmh 29.70 in1005.8 mb 0.00 in0.0 mm 0.00 in0.0 mm 0.00 in0.0 mm
01:08 AM 46.7°F8.2°C 46.2°F7.9°C 97% 3.3 mph 5.3 kmh 5.9 mph9.5 kmh 29.70 in1005.8 mb 0.00 in0.0 mm 0.00 in0.0 mm 0.00 in0.0 mm
01:38 AM 46.7°F8.2°C 46.1°F7.8°C 97% 2.0 mph 3.2 kmh 5.9 mph9.5 kmh 29.70 in1005.8 mb 0.00 in0.0 mm 0.00 in0.0 mm 0.00 in0.0 mm
02:08 AM 46.7°F8.2°C 45.9°F7.7°C 97% 3.3 mph 5.3 kmh 7.1 mph11.4 kmh 29.70 in1005.8 mb 0.00 in0.0 mm 0.00 in0.0 mm 0.00 in0.0 mm
02:38 AM 47.3°F8.5°C 46.2°F7.9°C 96% 4.4 mph 7.1 kmh 9.0 mph14.5 kmh 29.71 in1006.1 mb 0.00 in0.0 mm 0.00 in0.0 mm 0.00 in0.0 mm
03:08 AM 46.7°F8.2°C 46.5°F8.1°C 99% 3.1 mph N5.0 kmh N 10.6 mph17.1 kmh 29.71 in1006.1 mb 0.00 in0.0 mm 0.00 in0.0 mm 0.00 in0.0 mm
03:38 AM 46.7°F8.2°C 46.5°F8.1°C 99% 2.3 mph N3.7 kmh N 14.3 mph23.0 kmh 29.71 in1006.1 mb 0.00 in0.0 mm 0.00 in0.0 mm 0.00 in0.0 mm
04:08 AM 46.5°F8.1°C 46.0°F7.8°C 97% 2.2 mph N3.5 kmh N 9.6 mph15.4 kmh 29.71 in1006.1 mb 0.00 in0.0 mm 0.00 in0.0 mm 0.00 in0.0 mm
04:38 AM 46.4°F8.0°C 45.9°F7.7°C 98% 3.3 mph 5.3 kmh 7.8 mph12.6 kmh 29.70 in1005.8 mb 0.00 in0.0 mm 0.00 in0.0 mm 0.00 in0.0 mm
05:08 AM 47.3°F8.5°C 45.5°F7.5°C 93% 9.1 mph 14.6 kmh 13.1 mph21.1 kmh 29.71 in1006.1 mb 0.00 in0.0 mm 0.00 in0.0 mm 0.00 in0.0 mm
05:38 AM 47.4°F8.6°C 45.5°F7.5°C 92% 7.2 mph 11.6 kmh 11.8 mph19.0 kmh 29.71 in1006.1 mb 0.00 in0.0 mm 0.00 in0.0 mm 0.00 in0.0 mm
06:08 AM 47.3°F8.5°C 45.5°F7.5°C 93% 7.1 mph N11.4 kmh N 12.1 mph19.5 kmh 29.71 in1006.1 mb 0.00 in0.0 mm 0.00 in0.0 mm 0.00 in0.0 mm
06:38 AM 47.1°F8.4°C 45.1°F7.3°C 92% 8.3 mph 13.4 kmh 16.5 mph26.6 kmh 29.72 in1006.4 mb 0.00 in0.0 mm 0.00 in0.0 mm 0.00 in0.0 mm
07:08 AM 47.3°F8.5°C 45.0°F7.2°C 91% 7.4 mph N11.9 kmh N 14.3 mph23.0 kmh 29.73 in1006.8 mb 0.00 in0.0 mm 0.00 in0.0 mm 0.00 in0.0 mm
07:38 AM 46.9°F8.3°C 44.9°F7.2°C 92% 4.8 mph N7.7 kmh N 10.0 mph16.1 kmh 29.73 in1006.8 mb 0.00 in0.0 mm 0.00 in0.0 mm 0.00 in0.0 mm
08:08 AM 45.8°F7.7°C 45.8°F7.7°C 100% 2.4 mph 3.9 kmh 11.8 mph19.0 kmh 29.74 in1007.1 mb 0.00 in0.0 mm 0.00 in0.0 mm 0.00 in0.0 mm
08:38 AM 45.3°F7.4°C 45.3°F7.4°C 100% 4.8 mph N7.7 kmh N 6.5 mph10.5 kmh 29.76 in1007.8 mb 0.00 in0.0 mm 0.00 in0.0 mm 0.00 in0.0 mm
09:08 AM 45.1°F7.3°C 45.1°F7.3°C 100% 4.1 mph N6.6 kmh N 8.1 mph13.0 kmh 29.77 in1008.1 mb 0.00 in0.0 mm 0.00 in0.0 mm 0.00 in0.0 mm
09:38 AM 45.1°F7.3°C 45.1°F7.3°C 100% 9.5 mph 15.3 kmh 15.3 mph24.6 kmh 29.78 in1008.5 mb 0.00 in0.0 mm 0.00 in0.0 mm 0.00 in0.0 mm
10:08 AM 43.8°F6.6°C 43.8°F6.6°C 100% 7.0 mph N11.3 kmh N 14.0 mph22.5 kmh 29.80 in1009.1 mb 0.00 in0.0 mm 0.00 in0.0 mm 0.00 in0.0 mm
10:38 AM 43.3°F6.3°C 43.3°F6.3°C 100% 8.4 mph N13.5 kmh N 13.7 mph22.0 kmh 29.82 in1009.8 mb 0.00 in0.0 mm 0.00 in0.0 mm 0.00 in0.0 mm
10:50 AM 43.1°F6.2°C 43.1°F6.2°C 100% 5.6 mph 9.0 kmh 13.1 mph21.1 kmh 29.82 in1009.8 mb 0.00 in0.0 mm 0.00 in0.0 mm 0.00 in0.0 mm
11:20 AM 42.8°F6.0°C 42.8°F6.0°C 100% 5.9 mph 9.5 kmh 13.7 mph22.0 kmh 29.83 in1010.2 mb 0.00 in0.0 mm 0.00 in0.0 mm 0.00 in0.0 mm
11:50 AM 42.6°F5.9°C 42.6°F5.9°C 100% 7.9 mph 12.7 kmh 12.8 mph20.6 kmh 29.83 in1010.2 mb 0.00 in0.0 mm 0.00 in0.0 mm 0.00 in0.0 mm
12:20 PM 42.8°F6.0°C 42.8°F6.0°C 100% 5.0 mph 8.0 kmh 9.0 mph14.5 kmh 29.84 in1010.5 mb 0.00 in0.0 mm 0.00 in0.0 mm 0.00 in0.0 mm
12:50 PM 43.5°F6.4°C 43.5°F6.4°C 100% 1.7 mph 2.7 kmh 4.6 mph7.4 kmh 29.85 in1010.8 mb 0.00 in0.0 mm 0.00 in0.0 mm 0.00 in0.0 mm
01:20 PM 44.0°F6.7°C 44.0°F6.7°C 100% 2.1 mph 3.4 kmh 7.8 mph12.6 kmh 29.85 in1010.8 mb 0.00 in0.0 mm 0.00 in0.0 mm 0.00 in0.0 mm
01:50 PM 44.6°F7.0°C 44.6°F7.0°C 100% 5.2 mph 8.4 kmh 9.6 mph15.4 kmh 29.85 in1010.8 mb 0.00 in0.0 mm 0.00 in0.0 mm 0.00 in0.0 mm
02:20 PM 44.6°F7.0°C 44.6°F7.0°C 100% 4.4 mph 7.1 kmh 11.5 mph18.5 kmh 29.86 in1011.2 mb 0.00 in0.0 mm 0.00 in0.0 mm 0.00 in0.0 mm
02:50 PM 44.4°F6.9°C 44.4°F6.9°C 100% 2.5 mph 4.0 kmh 6.8 mph10.9 kmh 29.87 in1011.5 mb 0.00 in0.0 mm 0.00 in0.0 mm 0.00 in0.0 mm
03:20 PM 44.7°F7.1°C 44.7°F7.1°C 100% 4.0 mph N6.4 kmh N 10.6 mph17.1 kmh 29.88 in1011.9 mb 0.00 in0.0 mm 0.00 in0.0 mm 0.00 in0.0 mm
03:50 PM 44.7°F7.1°C 44.7°F7.1°C 100% 4.8 mph N7.7 kmh N 10.3 mph16.6 kmh 29.88 in1011.9 mb 0.00 in0.0 mm 0.00 in0.0 mm 0.00 in0.0 mm
04:20 PM 44.7°F7.1°C 44.7°F7.1°C 100% 3.3 mph N5.3 kmh N 8.1 mph13.0 kmh 29.89 in1012.2 mb 0.00 in0.0 mm 0.00 in0.0 mm 0.00 in0.0 mm
04:50 PM 44.6°F7.0°C 44.6°F7.0°C 100% 3.5 mph 5.6 kmh 9.6 mph15.4 kmh 29.91 in1012.9 mb 0.00 in0.0 mm 0.00 in0.0 mm 0.00 in0.0 mm
05:20 PM 44.6°F7.0°C 44.6°F7.0°C 100% 3.6 mph 5.8 kmh 8.4 mph13.5 kmh 29.92 in1013.2 mb 0.00 in0.0 mm 0.00 in0.0 mm 0.00 in0.0 mm
05:50 PM 44.6°F7.0°C 44.6°F7.0°C 100% 3.1 mph 5.0 kmh 6.2 mph10.0 kmh 29.93 in1013.5 mb 0.00 in0.0 mm 0.00 in0.0 mm 0.00 in0.0 mm
06:20 PM 43.8°F6.6°C 43.8°F6.6°C 100% 1.3 mph 2.1 kmh 5.6 mph9.0 kmh 29.94 in1013.9 mb 0.00 in0.0 mm 0.00 in0.0 mm 0.00 in0.0 mm
06:50 PM 43.7°F6.5°C 43.6°F6.4°C 100% Calm Calm -- 29.95 in1014.2 mb 0.00 in0.0 mm 0.00 in0.0 mm 0.00 in0.0 mm
07:20 PM 42.2°F5.7°C 42.2°F5.7°C 100% 0.1 mph SSW0.2 kmh SSW 5.6 mph9.0 kmh 29.96 in1014.6 mb 0.00 in0.0 mm 0.00 in0.0 mm 0.00 in0.0 mm
07:50 PM 41.3°F5.2°C 41.3°F5.2°C 100% 0.5 mph S0.8 kmh S 6.5 mph10.5 kmh 29.98 in1015.2 mb 0.00 in0.0 mm 0.00 in0.0 mm 0.00 in0.0 mm
08:20 PM 40.8°F4.9°C 40.8°F4.9°C 100% 2.5 mph S4.0 kmh S 5.6 mph9.0 kmh 30.00 in1015.9 mb 0.00 in0.0 mm 0.00 in0.0 mm 0.00 in0.0 mm
08:50 PM 39.3°F4.1°C 39.3°F4.1°C 100% 6.4 mph ESE10.3 kmh ESE 13.1 mph21.1 kmh 30.02 in1016.6 mb 0.00 in0.0 mm 0.00 in0.0 mm 0.00 in0.0 mm
09:20 PM 38.8°F3.8°C 38.8°F3.8°C 100% 2.9 mph SE4.7 kmh SE 8.7 mph14.0 kmh 30.03 in1016.9 mb 0.00 in0.0 mm 0.00 in0.0 mm 0.00 in0.0 mm
09:50 PM 38.8°F3.8°C 38.8°F3.8°C 100% Calm Calm 2.8 mph4.5 kmh 30.04 in1017.3 mb 0.00 in0.0 mm 0.00 in0.0 mm 0.00 in0.0 mm
10:20 PM 38.6°F3.7°C 38.6°F3.7°C 100% Calm Calm -- 30.06 in1017.9 mb 0.00 in0.0 mm 0.00 in0.0 mm 0.00 in0.0 mm
10:50 PM 38.4°F3.6°C 38.4°F3.6°C 100% Calm Calm -- 30.07 in1018.3 mb 0.00 in0.0 mm 0.00 in0.0 mm 0.00 in0.0 mm
11:20 PM 38.3°F3.5°C 38.3°F3.5°C 100% Calm Calm -- 30.08 in1018.6 mb 0.00 in0.0 mm 0.00 in0.0 mm 0.00 in0.0 mm
11:50 PM 37.9°F3.3°C 37.9°F3.3°C 100% Calm Calm -- 30.10 in1019.3 mb 0.00 in0.0 mm 0.00 in0.0 mm 0.00 in0.0 mm